createdAt,value
2022-09-03T00:00:32.929Z,55.49
2022-09-03T00:02:59.440Z,55.44
2022-09-03T00:05:25.779Z,55.33
2022-09-03T00:07:52.153Z,55.66
2022-09-03T00:10:18.544Z,55.77
2022-09-03T00:12:44.917Z,55.62
2022-09-03T00:15:11.299Z,55.60
2022-09-03T00:17:37.682Z,55.47
2022-09-03T00:20:04.116Z,55.48
2022-09-03T00:22:30.501Z,55.33
2022-09-03T00:24:56.883Z,55.47
2022-09-03T00:27:23.252Z,55.63
2022-09-03T00:29:49.655Z,55.57
2022-09-03T00:32:16.034Z,55.51
2022-09-03T00:34:42.418Z,55.23
2022-09-03T00:37:12.399Z,55.54
2022-09-03T00:39:35.251Z,55.47
2022-09-03T00:42:01.592Z,55.47
2022-09-03T00:44:27.974Z,55.65
2022-09-03T00:46:54.354Z,55.63
2022-09-03T00:49:20.738Z,55.64
2022-09-03T00:51:47.113Z,55.65
2022-09-03T00:54:13.498Z,55.56
2022-09-03T00:56:39.882Z,55.48
2022-09-03T00:59:06.264Z,55.66
2022-09-03T01:01:32.754Z,55.46
2022-09-03T01:03:59.023Z,55.55
2022-09-03T01:06:25.393Z,55.56
2022-09-03T01:08:51.862Z,55.38
2022-09-03T01:11:18.244Z,55.49
2022-09-03T01:13:44.630Z,55.51
2022-09-03T01:16:11.075Z,55.21
2022-09-03T01:18:37.384Z,55.25
2022-09-03T01:21:03.757Z,55.14
2022-09-03T01:23:30.139Z,55.13
2022-09-03T01:25:56.512Z,55.13
2022-09-03T01:28:22.994Z,55.02
2022-09-03T01:30:49.348Z,55.49
2022-09-03T01:33:15.652Z,55.37
2022-09-03T01:35:42.038Z,55.10
2022-09-03T01:38:08.422Z,55.01
2022-09-03T01:40:34.806Z,54.97
2022-09-03T01:43:01.214Z,55.17
2022-09-03T01:45:27.646Z,55.25
2022-09-03T01:47:54.079Z,54.95
2022-09-03T01:50:20.452Z,55.12
2022-09-03T01:52:46.946Z,55.08
2022-09-03T01:55:13.334Z,54.92
2022-09-03T01:57:39.714Z,55.33
2022-09-03T02:00:06.099Z,55.23
2022-09-03T02:02:32.578Z,55.06
2022-09-03T02:04:58.889Z,54.90
2022-09-03T02:07:25.270Z,54.95
2022-09-03T02:09:51.654Z,55.07
2022-09-03T02:12:18.042Z,55.02
2022-09-03T02:14:44.424Z,55.20
2022-09-03T02:17:10.870Z,55.01
2022-09-03T02:19:37.249Z,55.04
2022-09-03T02:22:03.635Z,55.10
2022-09-03T02:24:30.022Z,54.92
2022-09-03T02:26:56.403Z,54.96
2022-09-03T02:29:22.789Z,54.88
2022-09-03T02:31:49.175Z,54.88
2022-09-03T02:34:16.503Z,54.82
2022-09-03T02:36:43.280Z,54.89
2022-09-03T02:39:08.340Z,54.95
2022-09-03T02:41:34.758Z,54.85
2022-09-03T02:44:01.134Z,54.77
2022-09-03T02:46:27.613Z,54.73
2022-09-03T02:48:53.948Z,54.84
2022-09-03T02:51:20.338Z,54.99
2022-09-03T02:53:46.712Z,54.78
2022-09-03T02:56:13.100Z,54.76
2022-09-03T02:58:39.476Z,54.95
2022-09-03T03:01:05.912Z,54.80
2022-09-03T03:03:32.240Z,54.84
2022-09-03T03:05:58.624Z,54.69
2022-09-03T03:08:25.098Z,54.65
2022-09-03T03:10:51.391Z,55.04
2022-09-03T03:13:17.792Z,54.84
2022-09-03T03:15:44.188Z,54.90
2022-09-03T03:18:10.577Z,54.75
2022-09-03T03:20:36.955Z,54.61
2022-09-03T03:23:03.340Z,54.62
2022-09-03T03:25:29.719Z,54.66
2022-09-03T03:27:56.099Z,54.66
2022-09-03T03:30:22.478Z,54.59
2022-09-03T03:32:48.856Z,54.56
2022-09-03T03:35:15.238Z,54.59
2022-09-03T03:37:41.746Z,54.55
2022-09-03T03:40:08.135Z,54.67
2022-09-03T03:42:34.532Z,55.11
2022-09-03T03:45:00.919Z,54.91
2022-09-03T03:47:27.301Z,54.81
2022-09-03T03:49:53.710Z,54.55
2022-09-03T03:52:20.097Z,54.49
2022-09-03T03:54:46.474Z,54.48
2022-09-03T03:57:12.883Z,54.68
2022-09-03T03:59:39.270Z,54.79
2022-09-03T04:02:05.677Z,54.73
2022-09-03T04:04:32.035Z,54.78
2022-09-03T04:06:58.426Z,54.75
2022-09-03T04:09:24.803Z,54.48
2022-09-03T04:11:51.189Z,54.39
2022-09-03T04:14:17.626Z,54.36
2022-09-03T04:16:44.047Z,54.55
2022-09-03T04:19:10.397Z,54.61
2022-09-03T04:21:36.798Z,54.57
2022-09-03T04:24:03.179Z,54.86
2022-09-03T04:26:29.561Z,54.50
2022-09-03T04:28:55.944Z,54.49
2022-09-03T04:31:22.326Z,54.53
2022-09-03T04:33:48.786Z,54.54
2022-09-03T04:36:15.169Z,54.41
2022-09-03T04:38:41.548Z,54.55
2022-09-03T04:41:07.946Z,54.57
2022-09-03T04:43:34.321Z,54.49
2022-09-03T04:46:00.735Z,54.38
2022-09-03T04:48:27.120Z,54.31
2022-09-03T04:50:53.515Z,54.78
2022-09-03T04:53:19.894Z,54.55
2022-09-03T04:55:46.278Z,54.45
2022-09-03T04:58:12.660Z,54.38
2022-09-03T05:00:39.056Z,54.26
2022-09-03T05:03:05.472Z,54.28
2022-09-03T05:05:31.907Z,54.51
2022-09-03T05:07:58.317Z,54.43
2022-09-03T05:10:24.699Z,54.27
2022-09-03T05:12:51.103Z,54.23
2022-09-03T05:15:17.490Z,54.33
2022-09-03T05:17:43.971Z,54.40
2022-09-03T05:20:10.410Z,54.58
2022-09-03T05:22:36.784Z,54.77
2022-09-03T05:25:03.168Z,54.91
2022-09-03T05:27:29.549Z,55.06
2022-09-03T05:29:55.934Z,55.21
2022-09-03T05:32:22.317Z,55.44
2022-09-03T05:34:48.709Z,55.65
2022-09-03T05:37:15.080Z,55.67
2022-09-03T05:39:41.502Z,55.80
2022-09-03T05:42:07.844Z,55.84
2022-09-03T05:44:34.234Z,55.82
2022-09-03T05:47:00.623Z,55.76
2022-09-03T05:49:27.013Z,55.73
2022-09-03T05:51:53.393Z,55.75
2022-09-03T05:54:19.766Z,55.64
2022-09-03T05:56:46.153Z,55.63
2022-09-03T05:59:12.544Z,55.52
2022-09-03T06:01:38.995Z,55.41
2022-09-03T06:04:05.311Z,55.25
2022-09-03T06:06:31.686Z,55.10
2022-09-03T06:08:58.080Z,55.01
2022-09-03T06:11:24.454Z,54.87
2022-09-03T06:13:50.835Z,54.75
2022-09-03T06:16:17.271Z,54.59
2022-09-03T06:18:43.679Z,54.47
2022-09-03T06:21:10.064Z,54.44
2022-09-03T06:23:36.497Z,54.32
2022-09-03T06:26:05.271Z,54.20
2022-09-03T06:28:29.227Z,54.25
2022-09-03T06:30:55.604Z,54.15
2022-09-03T06:33:22.023Z,54.07
2022-09-03T06:35:49.328Z,54.04
2022-09-03T06:38:14.807Z,53.94
2022-09-03T06:40:41.134Z,53.93
2022-09-03T06:43:07.502Z,53.76
2022-09-03T06:45:33.934Z,53.62
2022-09-03T06:48:00.273Z,53.56
2022-09-03T06:50:27.420Z,53.51
2022-09-03T06:52:53.029Z,53.49
2022-09-03T06:55:19.439Z,53.23
2022-09-03T06:57:45.815Z,53.40
2022-09-03T07:00:12.200Z,53.19
2022-09-03T07:02:42.749Z,53.14
2022-09-03T07:05:04.964Z,53.12
2022-09-03T07:07:31.343Z,53.08
2022-09-03T07:09:57.728Z,52.91
2022-09-03T07:12:24.108Z,52.89
2022-09-03T07:14:51.233Z,52.83
2022-09-03T07:17:16.899Z,52.75
2022-09-03T07:19:43.289Z,52.78
2022-09-03T07:22:09.670Z,52.58
2022-09-03T07:24:36.048Z,52.51
2022-09-03T07:27:02.434Z,52.46
2022-09-03T07:29:28.812Z,52.54
2022-09-03T07:31:55.233Z,52.39
2022-09-03T07:34:22.076Z,52.36
2022-09-03T07:36:48.950Z,52.22
2022-09-03T07:39:14.544Z,52.20
2022-09-03T07:41:40.920Z,52.10
2022-09-03T07:44:07.418Z,52.03
2022-09-03T07:46:33.868Z,51.83
2022-09-03T07:49:00.197Z,51.84
2022-09-03T07:51:26.630Z,51.81
2022-09-03T07:53:52.964Z,51.76
2022-09-03T07:56:19.374Z,51.88
2022-09-03T07:58:45.757Z,51.63
2022-09-03T08:01:12.181Z,51.54
2022-09-03T08:03:38.552Z,51.49
2022-09-03T08:06:04.903Z,51.45
2022-09-03T08:08:35.537Z,51.46
2022-09-03T08:10:57.666Z,51.43
2022-09-03T08:13:24.035Z,51.31
2022-09-03T08:15:50.669Z,51.21
2022-09-03T08:18:17.057Z,51.23
2022-09-03T08:20:43.400Z,51.15
2022-09-03T08:23:09.776Z,51.02
2022-09-03T08:25:36.165Z,50.97
2022-09-03T08:28:02.538Z,50.96
2022-09-03T08:30:28.929Z,50.93
2022-09-03T08:32:55.314Z,50.84
2022-09-03T08:35:21.767Z,50.75
2022-09-03T08:37:48.158Z,50.77
2022-09-03T08:40:15.628Z,50.74
2022-09-03T08:42:40.957Z,50.62
2022-09-03T08:45:08.766Z,50.60
2022-09-03T08:47:33.716Z,50.50
2022-09-03T08:50:00.108Z,50.54
2022-09-03T08:52:26.487Z,50.49
2022-09-03T08:54:52.876Z,50.51
2022-09-03T08:57:19.316Z,50.41
2022-09-03T08:59:45.699Z,50.28
2022-09-03T09:02:12.171Z,50.26
2022-09-03T09:04:38.458Z,50.35
2022-09-03T09:07:04.839Z,50.35
2022-09-03T09:09:31.224Z,50.23
2022-09-03T09:11:57.601Z,50.22
2022-09-03T09:14:23.992Z,50.23
2022-09-03T09:16:50.365Z,50.20
2022-09-03T09:19:16.759Z,50.12
2022-09-03T09:21:43.129Z,50.02
2022-09-03T09:24:09.516Z,50.00
2022-09-03T09:26:35.898Z,49.93
2022-09-03T09:29:02.279Z,50.00
2022-09-03T09:31:28.698Z,49.93
2022-09-03T09:33:55.088Z,49.91
2022-09-03T09:36:21.469Z,49.89
2022-09-03T09:38:47.859Z,49.85
2022-09-03T09:41:14.267Z,49.85
2022-09-03T09:43:40.642Z,49.81
2022-09-03T09:46:07.067Z,49.77
2022-09-03T09:48:33.408Z,49.71
2022-09-03T09:50:59.795Z,49.65
2022-09-03T09:53:26.183Z,49.63
2022-09-03T09:55:52.562Z,49.60
2022-09-03T09:58:18.939Z,49.55
2022-09-03T10:00:45.325Z,49.53
2022-09-03T10:03:11.748Z,49.54
2022-09-03T10:05:38.095Z,49.53
2022-09-03T10:08:04.516Z,49.45
2022-09-03T10:10:30.881Z,49.45
2022-09-03T10:12:57.262Z,49.42
2022-09-03T10:15:23.649Z,49.40
2022-09-03T10:17:50.049Z,49.35
2022-09-03T10:20:16.433Z,49.29
2022-09-03T10:22:56.573Z,49.20
2022-09-03T10:25:09.201Z,49.18
2022-09-03T10:27:35.682Z,49.18
2022-09-03T10:30:02.126Z,49.19
2022-09-03T10:32:37.841Z,49.10
2022-09-03T10:34:54.905Z,49.07
2022-09-03T10:37:21.290Z,49.05
2022-09-03T10:39:51.651Z,49.03
2022-09-03T10:42:14.300Z,48.96
2022-09-03T10:44:40.681Z,48.96
2022-09-03T10:47:07.073Z,48.95
2022-09-03T10:49:33.457Z,48.88
2022-09-03T10:51:59.851Z,48.83
2022-09-03T10:54:26.243Z,48.83
2022-09-03T10:56:52.630Z,48.77
2022-09-03T10:59:19.007Z,48.75
2022-09-03T11:01:45.429Z,48.76
2022-09-03T11:04:11.849Z,48.65
2022-09-03T11:06:38.251Z,48.60
2022-09-03T11:09:06.736Z,48.59
2022-09-03T11:11:31.037Z,48.60
2022-09-03T11:13:57.412Z,48.58
2022-09-03T11:16:23.858Z,48.54
2022-09-03T11:18:50.192Z,48.42
2022-09-03T11:21:16.581Z,48.40
2022-09-03T11:23:42.999Z,48.38
2022-09-03T11:26:09.389Z,48.29
2022-09-03T11:28:35.774Z,48.28
2022-09-03T11:31:02.200Z,48.26
2022-09-03T11:33:28.537Z,48.24
2022-09-03T11:35:54.919Z,48.17
2022-09-03T11:38:21.327Z,48.10
2022-09-03T11:40:47.715Z,48.06
2022-09-03T11:43:14.096Z,47.98
2022-09-03T11:45:40.632Z,48.00
2022-09-03T11:48:06.885Z,47.92
2022-09-03T11:50:33.340Z,47.86
2022-09-03T11:52:59.676Z,47.80
2022-09-03T11:55:26.055Z,47.72
2022-09-03T11:57:52.441Z,47.67
2022-09-03T12:00:18.827Z,47.58
2022-09-03T12:02:45.323Z,47.46
2022-09-03T12:05:11.611Z,47.38
2022-09-03T12:07:37.991Z,47.30
2022-09-03T12:10:04.367Z,47.28
2022-09-03T12:12:30.839Z,47.21
2022-09-03T12:14:57.227Z,47.16
2022-09-03T12:17:23.612Z,47.07
2022-09-03T12:19:49.998Z,47.00
2022-09-03T12:22:16.384Z,46.98
2022-09-03T12:24:42.765Z,46.92
2022-09-03T12:27:09.149Z,46.85
2022-09-03T12:29:35.574Z,46.87
2022-09-03T12:32:01.957Z,47.10
2022-09-03T12:34:28.344Z,47.22
2022-09-03T12:36:54.731Z,47.25
2022-09-03T12:40:04.772Z,47.50
2022-09-03T12:41:47.544Z,47.47
2022-09-03T12:44:13.876Z,47.46
2022-09-03T12:46:40.310Z,47.48
2022-09-03T12:51:51.191Z,47.46
2022-09-03T12:53:59.463Z,47.28
2022-09-03T12:56:25.951Z,47.45
2022-09-03T12:58:52.263Z,47.35
2022-09-03T13:01:18.742Z,47.40
2022-09-03T13:03:45.035Z,47.40
2022-09-03T13:06:11.424Z,47.35
2022-09-03T13:08:37.821Z,45.63
2022-09-03T13:11:04.204Z,44.57
2022-09-03T13:13:30.601Z,44.04
2022-09-03T13:15:56.989Z,43.75
2022-09-03T13:18:23.379Z,43.59
2022-09-03T13:20:49.765Z,43.45
2022-09-03T13:23:16.207Z,43.31
2022-09-03T13:25:42.561Z,43.36
2022-09-03T13:28:08.934Z,43.35
2022-09-03T13:30:35.394Z,43.20
2022-09-03T13:33:01.767Z,43.22
2022-09-03T13:35:28.183Z,43.18
2022-09-03T13:37:54.572Z,43.17
2022-09-03T13:40:20.952Z,43.06
2022-09-03T13:42:47.355Z,43.05
2022-09-03T13:45:13.738Z,43.02
2022-09-03T13:47:40.120Z,42.95
2022-09-03T13:50:06.498Z,42.83
2022-09-03T13:52:32.888Z,42.74
2022-09-03T13:54:59.262Z,43.34
2022-09-03T13:57:25.643Z,43.17
2022-09-03T13:59:52.026Z,43.23
2022-09-03T14:02:18.482Z,43.34
2022-09-03T14:04:44.789Z,43.93
2022-09-03T14:07:11.203Z,44.83
2022-09-03T14:09:37.740Z,45.21
2022-09-03T14:12:04.116Z,45.41
2022-09-03T14:14:30.508Z,45.54
2022-09-03T14:16:56.914Z,45.66
2022-09-03T14:19:23.278Z,45.71
2022-09-03T14:21:49.666Z,45.74
2022-09-03T14:24:16.052Z,46.06
2022-09-03T14:26:42.446Z,45.24
2022-09-03T14:29:08.882Z,45.48
2022-09-03T14:31:35.321Z,44.93
2022-09-03T14:34:01.665Z,45.59
2022-09-03T14:36:28.061Z,45.39
2022-09-03T14:38:54.473Z,44.84
2022-09-03T14:41:20.885Z,45.11
2022-09-03T14:43:47.268Z,45.04
2022-09-03T14:46:13.833Z,44.57
2022-09-03T14:48:40.105Z,45.71
2022-09-03T14:51:06.504Z,45.79
2022-09-03T14:53:32.925Z,45.68
2022-09-03T14:55:59.324Z,46.14
2022-09-03T14:58:25.717Z,46.79
2022-09-03T15:00:52.159Z,46.79
2022-09-03T15:03:18.491Z,46.81
2022-09-03T15:05:44.919Z,47.30
2022-09-03T15:08:11.320Z,47.56
2022-09-03T15:10:37.699Z,47.58
2022-09-03T15:13:04.086Z,47.68
2022-09-03T15:15:30.473Z,47.95
2022-09-03T15:17:56.858Z,47.73
2022-09-03T15:20:23.249Z,47.88
2022-09-03T15:22:50.273Z,47.72
2022-09-03T15:25:16.023Z,47.82
2022-09-03T15:27:42.411Z,47.56
2022-09-03T15:30:08.914Z,47.96
2022-09-03T15:32:35.322Z,47.70
2022-09-03T15:35:01.701Z,47.90
2022-09-03T15:37:28.091Z,48.01
2022-09-03T15:39:54.533Z,48.17
2022-09-03T15:42:20.981Z,48.28
2022-09-03T15:44:47.368Z,48.56
2022-09-03T15:47:14.319Z,48.56
2022-09-03T15:49:40.157Z,48.90
2022-09-03T15:52:06.543Z,48.80
2022-09-03T15:54:32.921Z,48.82
2022-09-03T15:56:59.318Z,49.01
2022-09-03T15:59:25.705Z,48.88
2022-09-03T16:01:52.094Z,48.83
2022-09-03T16:04:18.504Z,48.78
2022-09-03T16:06:44.888Z,48.83
2022-09-03T16:09:11.268Z,48.86
2022-09-03T16:11:37.654Z,48.91
2022-09-03T16:14:04.028Z,48.59
2022-09-03T16:16:30.514Z,48.41
2022-09-03T16:18:56.802Z,48.70
2022-09-03T16:21:23.299Z,48.75
2022-09-03T16:23:49.681Z,48.78
2022-09-03T16:26:16.063Z,48.60
2022-09-03T16:28:42.455Z,48.55
2022-09-03T16:31:08.859Z,48.50
2022-09-03T16:33:35.212Z,48.46
2022-09-03T16:36:01.599Z,48.58
2022-09-03T16:38:27.989Z,48.50
2022-09-03T16:40:54.379Z,48.49
2022-09-03T16:43:39.272Z,48.42
2022-09-03T16:45:47.435Z,48.44
2022-09-03T16:48:13.755Z,48.36
2022-09-03T16:50:40.181Z,48.43
2022-09-03T16:53:06.559Z,48.71
2022-09-03T16:55:32.938Z,49.74
2022-09-03T16:57:59.320Z,50.00
2022-09-03T17:00:25.703Z,50.36
2022-09-03T17:02:52.117Z,48.75
2022-09-03T17:05:18.467Z,48.37
2022-09-03T17:07:44.918Z,48.37
2022-09-03T17:10:11.295Z,48.36
2022-09-03T17:12:37.682Z,48.17
2022-09-03T17:15:04.073Z,48.16
2022-09-03T17:17:30.445Z,48.10
2022-09-03T17:19:56.855Z,48.13
2022-09-03T17:22:23.210Z,48.07
2022-09-03T17:24:50.550Z,48.06
2022-09-03T17:27:16.014Z,48.10
2022-09-03T17:29:42.398Z,48.09
2022-09-03T17:32:08.778Z,48.11
2022-09-03T17:34:35.283Z,48.08
2022-09-03T17:37:01.663Z,48.08
2022-09-03T17:39:28.129Z,48.07
2022-09-03T17:41:54.437Z,48.08
2022-09-03T17:44:20.832Z,48.03
2022-09-03T17:46:47.276Z,48.07
2022-09-03T17:49:13.596Z,48.08
2022-09-03T17:51:39.973Z,48.09
2022-09-03T17:54:06.361Z,48.08
2022-09-03T17:56:32.741Z,48.14
2022-09-03T17:58:59.119Z,48.16
2022-09-03T18:01:25.553Z,48.14
2022-09-03T18:03:51.931Z,48.16
2022-09-03T18:06:18.284Z,48.19
2022-09-03T18:08:44.667Z,48.14
2022-09-03T18:11:11.048Z,48.17
2022-09-03T18:13:37.432Z,48.15
2022-09-03T18:16:03.875Z,48.13
2022-09-03T18:18:30.191Z,48.14
2022-09-03T18:21:20.734Z,48.15
2022-09-03T18:23:23.049Z,48.18
2022-09-03T18:25:49.332Z,48.19
2022-09-03T18:28:15.724Z,48.14
2022-09-03T18:30:42.097Z,48.15
2022-09-03T18:33:08.487Z,48.12
2022-09-03T18:35:36.576Z,48.17
2022-09-03T18:38:01.252Z,48.14
2022-09-03T18:40:27.628Z,48.07
2022-09-03T18:42:54.041Z,48.17
2022-09-03T18:45:22.507Z,48.20
2022-09-03T18:48:06.019Z,48.17
2022-09-03T18:50:13.195Z,48.11
2022-09-03T18:52:39.582Z,48.21
2022-09-03T18:55:08.291Z,48.17
2022-09-03T18:57:32.340Z,48.12
2022-09-03T18:59:58.712Z,48.14
2022-09-03T19:02:25.177Z,48.14
2022-09-03T19:04:51.471Z,48.17
2022-09-03T19:07:18.003Z,48.13
2022-09-03T19:09:44.381Z,48.10
2022-09-03T19:12:12.449Z,48.11
2022-09-03T19:14:37.148Z,48.11
2022-09-03T19:17:03.531Z,48.15
2022-09-03T19:19:29.912Z,48.07
2022-09-03T19:21:59.670Z,48.11
2022-09-03T19:24:23.940Z,48.10
2022-09-03T19:26:49.127Z,48.08
2022-09-03T19:29:15.500Z,48.08
2022-09-03T19:31:42.022Z,48.07
2022-09-03T19:34:08.309Z,48.04
2022-09-03T19:36:34.699Z,48.09
2022-09-03T19:39:01.068Z,48.02
2022-09-03T19:41:27.460Z,47.99
2022-09-03T19:43:53.839Z,48.01
2022-09-03T19:46:20.344Z,48.04
2022-09-03T19:48:46.673Z,47.97
2022-09-03T19:51:13.087Z,47.99
2022-09-03T19:53:39.467Z,47.99
2022-09-03T19:56:07.848Z,47.99
2022-09-03T19:58:43.244Z,48.02
2022-09-03T20:00:58.722Z,47.99
2022-09-03T20:03:25.125Z,48.09
2022-09-03T20:05:51.504Z,48.06
2022-09-03T20:08:17.889Z,48.16
2022-09-03T20:10:44.276Z,48.16
2022-09-03T20:13:10.680Z,48.07
2022-09-03T20:15:37.150Z,48.12
2022-09-03T20:18:03.520Z,48.10
2022-09-03T20:20:29.900Z,48.13
2022-09-03T20:22:56.285Z,48.11
2022-09-03T20:25:22.664Z,48.12
2022-09-03T20:27:49.049Z,48.15
2022-09-03T20:30:15.431Z,48.13
2022-09-03T20:32:41.841Z,48.11
2022-09-03T20:35:08.227Z,48.11
2022-09-03T20:37:34.636Z,48.07
2022-09-03T20:40:01.044Z,48.13
2022-09-03T20:42:27.404Z,48.14
2022-09-03T20:44:53.787Z,48.14
2022-09-03T20:47:20.166Z,48.13
2022-09-03T20:49:46.552Z,48.18
2022-09-03T20:52:12.928Z,48.15
2022-09-03T20:54:39.306Z,48.16
2022-09-03T20:57:05.690Z,48.18
2022-09-03T20:59:32.071Z,48.14
2022-09-03T21:01:58.641Z,48.13
2022-09-03T21:04:24.914Z,48.12
2022-09-03T21:06:51.293Z,48.17
2022-09-03T21:09:17.701Z,48.18
2022-09-03T21:11:44.089Z,48.17
2022-09-03T21:14:10.603Z,48.17
2022-09-03T21:16:36.991Z,48.17
2022-09-03T21:19:03.370Z,48.18
2022-09-03T21:21:32.914Z,48.20
2022-09-03T21:23:56.225Z,48.20
2022-09-03T21:26:22.766Z,48.19
2022-09-03T21:28:49.157Z,48.20
2022-09-03T21:31:15.654Z,48.19
2022-09-03T21:33:41.939Z,48.22
2022-09-03T21:36:08.320Z,48.24
2022-09-03T21:38:34.702Z,48.25
2022-09-03T21:41:01.080Z,48.26
2022-09-03T21:43:27.462Z,48.28
2022-09-03T21:45:53.868Z,48.32
2022-09-03T21:48:20.278Z,48.22
2022-09-03T21:50:46.613Z,48.31
2022-09-03T21:53:12.990Z,48.33
2022-09-03T21:55:39.364Z,48.28
2022-09-03T21:58:05.747Z,48.31
2022-09-03T22:00:32.117Z,48.33
2022-09-03T22:02:58.509Z,48.33
2022-09-03T22:05:24.880Z,48.39
2022-09-03T22:07:53.672Z,48.38
2022-09-03T22:10:20.231Z,48.40
2022-09-03T22:12:44.038Z,48.40
2022-09-03T22:15:10.416Z,48.50
2022-09-03T22:17:36.829Z,48.44
2022-09-03T22:20:03.208Z,48.47
2022-09-03T22:22:29.705Z,48.49
2022-09-03T22:24:56.089Z,48.53
2022-09-03T22:27:22.476Z,48.54
2022-09-03T22:29:49.205Z,48.57
2022-09-03T22:32:15.239Z,48.53
2022-09-03T22:34:41.621Z,48.60
2022-09-03T22:37:08.007Z,48.66
2022-09-03T22:39:36.374Z,48.64
2022-09-03T22:42:00.968Z,48.70
2022-09-03T22:44:27.352Z,48.68
2022-09-03T22:46:53.731Z,48.73
2022-09-03T22:49:20.108Z,48.73
2022-09-03T22:51:46.500Z,48.68
2022-09-03T22:54:12.875Z,48.72
2022-09-03T22:56:39.274Z,48.77
2022-09-03T22:59:05.686Z,48.72
2022-09-03T23:01:32.118Z,48.71
2022-09-03T23:03:58.491Z,48.75
2022-09-03T23:06:24.825Z,48.78
2022-09-03T23:08:51.221Z,48.79
2022-09-03T23:11:17.630Z,48.80
2022-09-03T23:13:44.005Z,48.85
2022-09-03T23:16:10.470Z,48.79
2022-09-03T23:18:36.796Z,48.85
2022-09-03T23:21:03.185Z,48.83
2022-09-03T23:23:29.565Z,48.89
2022-09-03T23:25:55.950Z,48.86
2022-09-03T23:28:22.380Z,48.86
2022-09-03T23:30:48.737Z,48.88
2022-09-03T23:33:15.120Z,48.92
2022-09-03T23:35:41.524Z,48.91
2022-09-03T23:38:07.949Z,48.92
2022-09-03T23:40:34.385Z,48.94
2022-09-03T23:43:00.746Z,48.93
2022-09-03T23:45:27.190Z,48.97
2022-09-03T23:47:53.515Z,48.97
2022-09-03T23:50:19.897Z,48.99
2022-09-03T23:52:46.280Z,49.01
2022-09-03T23:55:12.662Z,48.99
2022-09-03T23:57:39.275Z,49.06
